sensor_id;sensor_type;location;lat;lon;timestamp;temperature;humidity
27747;DHT22;15138;51.012;4.692;2023-04-15T05:48:26;9.20;74.10
27747;DHT22;15138;51.012;4.692;2023-04-15T05:50:54;9.20;99.90
27747;DHT22;15138;51.012;4.692;2023-04-15T05:53:22;9.10;99.90
27747;DHT22;15138;51.012;4.692;2023-04-15T05:55:51;9.20;99.90
27747;DHT22;15138;51.012;4.692;2023-04-15T05:58:19;9.10;1.00
27747;DHT22;15138;51.012;4.692;2023-04-15T06:00:47;9.10;99.90
27747;DHT22;15138;51.012;4.692;2023-04-15T06:03:17;9.20;99.90
27747;DHT22;15138;51.012;4.692;2023-04-15T06:05:45;9.30;99.90
27747;DHT22;15138;51.012;4.692;2023-04-15T06:08:14;9.20;99.90
27747;DHT22;15138;51.012;4.692;2023-04-15T06:10:42;9.30;99.90
27747;DHT22;15138;51.012;4.692;2023-04-15T06:13:10;9.40;99.90
27747;DHT22;15138;51.012;4.692;2023-04-15T06:15:38;9.40;99.90
27747;DHT22;15138;51.012;4.692;2023-04-15T06:18:07;9.40;99.90
27747;DHT22;15138;51.012;4.692;2023-04-15T06:20:36;9.50;99.90
27747;DHT22;15138;51.012;4.692;2023-04-15T06:23:05;9.50;99.90
27747;DHT22;15138;51.012;4.692;2023-04-15T06:25:33;9.60;99.90
27747;DHT22;15138;51.012;4.692;2023-04-15T06:28:01;9.60;99.90
27747;DHT22;15138;51.012;4.692;2023-04-15T06:30:29;9.70;99.90
27747;DHT22;15138;51.012;4.692;2023-04-15T06:32:57;9.80;99.90
27747;DHT22;15138;51.012;4.692;2023-04-15T06:35:26;9.80;99.90
27747;DHT22;15138;51.012;4.692;2023-04-15T06:37:55;9.90;99.90
27747;DHT22;15138;51.012;4.692;2023-04-15T06:40:24;10.00;99.90
27747;DHT22;15138;51.012;4.692;2023-04-15T08:02:23;16.40;99.90
27747;DHT22;15138;51.012;4.692;2023-04-15T08:04:53;16.50;99.90
27747;DHT22;15138;51.012;4.692;2023-04-15T08:07:21;16.50;99.90
27747;DHT22;15138;51.012;4.692;2023-04-15T08:09:49;16.60;99.90
27747;DHT22;15138;51.012;4.692;2023-04-15T08:12:18;16.80;99.90
27747;DHT22;15138;51.012;4.692;2023-04-15T08:14:46;17.20;99.90
27747;DHT22;15138;51.012;4.692;2023-04-15T08:17:14;17.40;99.90
27747;DHT22;15138;51.012;4.692;2023-04-15T08:19:42;17.30;99.90
27747;DHT22;15138;51.012;4.692;2023-04-15T08:22:12;17.70;1.00
27747;DHT22;15138;51.012;4.692;2023-04-15T08:24:43;17.20;99.90
27747;DHT22;15138;51.012;4.692;2023-04-15T08:27:12;17.30;99.90
27747;DHT22;15138;51.012;4.692;2023-04-15T08:42:10;19.00;1.00
27747;DHT22;15138;51.012;4.692;2023-04-15T08:44:39;19.10;1.00
27747;DHT22;15138;51.012;4.692;2023-04-15T08:47:08;19.60;99.90
27747;DHT22;15138;51.012;4.692;2023-04-15T08:52:08;19.90;1.00
27747;DHT22;15138;51.012;4.692;2023-04-15T08:54:37;19.50;1.00
27747;DHT22;15138;51.012;4.692;2023-04-15T09:17:01;21.00;99.90
27747;DHT22;15138;51.012;4.692;2023-04-15T09:19:30;20.70;78.50
27747;DHT22;15138;51.012;4.692;2023-04-15T09:22:01;20.80;99.90
27747;DHT22;15138;51.012;4.692;2023-04-15T09:24:38;20.60;99.90
27747;DHT22;15138;51.012;4.692;2023-04-15T09:27:10;20.90;99.90
27747;DHT22;15138;51.012;4.692;2023-04-15T09:29:40;20.50;99.90
27747;DHT22;15138;51.012;4.692;2023-04-15T09:32:09;20.50;99.90
27747;DHT22;15138;51.012;4.692;2023-04-15T09:34:38;21.00;99.90
27747;DHT22;15138;51.012;4.692;2023-04-15T09:37:06;21.00;99.90
27747;DHT22;15138;51.012;4.692;2023-04-15T09:39:47;21.30;99.90
27747;DHT22;15138;51.012;4.692;2023-04-15T09:42:17;21.40;99.90
27747;DHT22;15138;51.012;4.692;2023-04-15T09:44:50;21.70;99.90
27747;DHT22;15138;51.012;4.692;2023-04-15T09:47:36;22.10;99.90
27747;DHT22;15138;51.012;4.692;2023-04-15T09:50:05;22.00;99.90
27747;DHT22;15138;51.012;4.692;2023-04-15T09:52:40;22.30;99.90
27747;DHT22;15138;51.012;4.692;2023-04-15T09:55:10;22.60;99.90
27747;DHT22;15138;51.012;4.692;2023-04-15T09:57:40;22.40;99.90
27747;DHT22;15138;51.012;4.692;2023-04-15T10:00:10;22.30;99.90
27747;DHT22;15138;51.012;4.692;2023-04-15T10:02:39;22.90;99.90
27747;DHT22;15138;51.012;4.692;2023-04-15T10:05:13;23.30;99.90
27747;DHT22;15138;51.012;4.692;2023-04-15T10:07:42;23.30;99.90
27747;DHT22;15138;51.012;4.692;2023-04-15T10:10:12;23.70;1.00
27747;DHT22;15138;51.012;4.692;2023-04-15T10:12:42;23.60;1.00
27747;DHT22;15138;51.012;4.692;2023-04-15T10:20:12;24.60;1.00
27747;DHT22;15138;51.012;4.692;2023-04-15T10:22:43;24.60;99.90
27747;DHT22;15138;51.012;4.692;2023-04-15T10:25:12;24.40;99.90
27747;DHT22;15138;51.012;4.692;2023-04-15T10:30:14;23.80;1.00
27747;DHT22;15138;51.012;4.692;2023-04-15T10:35:13;23.90;77.30
27747;DHT22;15138;51.012;4.692;2023-04-15T10:37:41;24.10;99.90
27747;DHT22;15138;51.012;4.692;2023-04-15T10:40:30;24.10;99.90
27747;DHT22;15138;51.012;4.692;2023-04-15T10:43:01;24.30;99.90
27747;DHT22;15138;51.012;4.692;2023-04-15T10:45:32;23.90;99.90
27747;DHT22;15138;51.012;4.692;2023-04-15T10:48:01;23.60;99.90
27747;DHT22;15138;51.012;4.692;2023-04-15T10:50:30;24.10;99.90
27747;DHT22;15138;51.012;4.692;2023-04-15T10:53:01;24.50;99.90
27747;DHT22;15138;51.012;4.692;2023-04-15T10:55:31;25.00;99.90
27747;DHT22;15138;51.012;4.692;2023-04-15T10:58:01;25.50;99.90
27747;DHT22;15138;51.012;4.692;2023-04-15T11:00:31;25.60;99.90
27747;DHT22;15138;51.012;4.692;2023-04-15T11:03:05;24.60;99.90
27747;DHT22;15138;51.012;4.692;2023-04-15T11:05:50;24.80;99.90
27747;DHT22;15138;51.012;4.692;2023-04-15T11:08:19;25.20;99.90
27747;DHT22;15138;51.012;4.692;2023-04-15T11:10:50;25.30;99.90
27747;DHT22;15138;51.012;4.692;2023-04-15T11:13:27;25.70;99.90
27747;DHT22;15138;51.012;4.692;2023-04-15T11:16:01;25.60;99.90
27747;DHT22;15138;51.012;4.692;2023-04-15T11:18:31;26.00;99.90
27747;DHT22;15138;51.012;4.692;2023-04-15T11:21:04;25.80;99.90
27747;DHT22;15138;51.012;4.692;2023-04-15T11:23:38;26.20;99.90
27747;DHT22;15138;51.012;4.692;2023-04-15T11:26:08;25.90;89.60
27747;DHT22;15138;51.012;4.692;2023-04-15T11:28:40;25.70;87.10
27747;DHT22;15138;51.012;4.692;2023-04-15T11:31:10;25.80;86.30
27747;DHT22;15138;51.012;4.692;2023-04-15T11:33:53;25.40;84.60
27747;DHT22;15138;51.012;4.692;2023-04-15T11:36:23;25.30;81.30
27747;DHT22;15138;51.012;4.692;2023-04-15T11:41:23;25.50;99.90
27747;DHT22;15138;51.012;4.692;2023-04-15T11:43:52;25.70;99.90
27747;DHT22;15138;51.012;4.692;2023-04-15T11:46:27;26.00;87.40
27747;DHT22;15138;51.012;4.692;2023-04-15T11:48:55;26.50;90.40
27747;DHT22;15138;51.012;4.692;2023-04-15T11:51:24;26.80;1.00
27747;DHT22;15138;51.012;4.692;2023-04-15T11:53:52;26.10;69.60
27747;DHT22;15138;51.012;4.692;2023-04-15T11:56:22;25.90;82.80
27747;DHT22;15138;51.012;4.692;2023-04-15T11:58:53;26.40;74.80
27747;DHT22;15138;51.012;4.692;2023-04-15T12:01:30;26.30;71.40
27747;DHT22;15138;51.012;4.692;2023-04-15T12:03:58;25.30;54.00
27747;DHT22;15138;51.012;4.692;2023-04-15T12:06:31;25.80;53.50
27747;DHT22;15138;51.012;4.692;2023-04-15T12:09:04;25.90;45.10
27747;DHT22;15138;51.012;4.692;2023-04-15T12:11:37;26.10;55.60
27747;DHT22;15138;51.012;4.692;2023-04-15T12:14:09;26.00;99.90
27747;DHT22;15138;51.012;4.692;2023-04-15T12:16:40;26.10;99.90
27747;DHT22;15138;51.012;4.692;2023-04-15T12:19:21;25.70;99.90
27747;DHT22;15138;51.012;4.692;2023-04-15T12:21:54;26.00;99.90
27747;DHT22;15138;51.012;4.692;2023-04-15T12:24:26;25.90;48.10
27747;DHT22;15138;51.012;4.692;2023-04-15T12:26:56;26.70;54.10
27747;DHT22;15138;51.012;4.692;2023-04-15T12:29:27;26.30;45.10
27747;DHT22;15138;51.012;4.692;2023-04-15T12:31:57;25.90;50.20
27747;DHT22;15138;51.012;4.692;2023-04-15T12:34:27;26.00;41.70
27747;DHT22;15138;51.012;4.692;2023-04-15T12:36:58;26.40;48.40
27747;DHT22;15138;51.012;4.692;2023-04-15T12:39:27;26.50;50.90
27747;DHT22;15138;51.012;4.692;2023-04-15T12:41:57;26.20;50.90
27747;DHT22;15138;51.012;4.692;2023-04-15T12:44:27;27.00;46.90
27747;DHT22;15138;51.012;4.692;2023-04-15T12:46:56;26.70;46.60
27747;DHT22;15138;51.012;4.692;2023-04-15T12:49:26;26.20;42.50
27747;DHT22;15138;51.012;4.692;2023-04-15T12:51:55;25.60;32.80
27747;DHT22;15138;51.012;4.692;2023-04-15T12:54:25;26.00;43.70
27747;DHT22;15138;51.012;4.692;2023-04-15T12:56:54;25.40;34.80
27747;DHT22;15138;51.012;4.692;2023-04-15T12:59:22;25.70;37.80
27747;DHT22;15138;51.012;4.692;2023-04-15T13:01:52;25.00;38.90
27747;DHT22;15138;51.012;4.692;2023-04-15T13:04:21;24.20;27.40
27747;DHT22;15138;51.012;4.692;2023-04-15T13:06:49;25.10;38.70
27747;DHT22;15138;51.012;4.692;2023-04-15T13:09:18;25.10;36.60
27747;DHT22;15138;51.012;4.692;2023-04-15T13:11:46;25.10;42.90
27747;DHT22;15138;51.012;4.692;2023-04-15T13:14:14;25.40;44.40
27747;DHT22;15138;51.012;4.692;2023-04-15T13:16:42;24.80;35.80
27747;DHT22;15138;51.012;4.692;2023-04-15T13:19:12;24.30;36.90
27747;DHT22;15138;51.012;4.692;2023-04-15T13:21:41;24.70;42.00
27747;DHT22;15138;51.012;4.692;2023-04-15T13:24:09;24.60;99.90
27747;DHT22;15138;51.012;4.692;2023-04-15T13:29:06;25.20;99.90
27747;DHT22;15138;51.012;4.692;2023-04-15T13:31:34;25.10;42.70
27747;DHT22;15138;51.012;4.692;2023-04-15T13:41:31;25.60;1.00
27747;DHT22;15138;51.012;4.692;2023-04-15T13:43:59;25.40;99.90
27747;DHT22;15138;51.012;4.692;2023-04-15T13:46:27;24.80;85.00
27747;DHT22;15138;51.012;4.692;2023-04-15T13:48:56;24.30;42.10
27747;DHT22;15138;51.012;4.692;2023-04-15T13:51:24;25.00;45.50
27747;DHT22;15138;51.012;4.692;2023-04-15T13:53:54;24.90;41.20
27747;DHT22;15138;51.012;4.692;2023-04-15T13:56:23;24.90;47.90
27747;DHT22;15138;51.012;4.692;2023-04-15T13:58:52;24.50;36.60
27747;DHT22;15138;51.012;4.692;2023-04-15T14:01:24;24.20;40.30
27747;DHT22;15138;51.012;4.692;2023-04-15T14:03:53;24.30;38.20
27747;DHT22;15138;51.012;4.692;2023-04-15T14:06:21;24.00;37.10
27747;DHT22;15138;51.012;4.692;2023-04-15T14:08:49;24.20;36.50
27747;DHT22;15138;51.012;4.692;2023-04-15T14:11:20;24.00;37.10
27747;DHT22;15138;51.012;4.692;2023-04-15T14:13:48;24.30;99.90
27747;DHT22;15138;51.012;4.692;2023-04-15T14:16:16;24.30;99.90
27747;DHT22;15138;51.012;4.692;2023-04-15T14:23:42;23.70;27.60
27747;DHT22;15138;51.012;4.692;2023-04-15T14:26:10;23.60;92.30
27747;DHT22;15138;51.012;4.692;2023-04-15T14:28:40;23.40;99.90
27747;DHT22;15138;51.012;4.692;2023-04-15T14:31:11;23.60;1.00
27747;DHT22;15138;51.012;4.692;2023-04-15T14:33:40;23.10;1.00
27747;DHT22;15138;51.012;4.692;2023-04-15T14:41:06;23.30;99.90
27747;DHT22;15138;51.012;4.692;2023-04-15T14:46:05;22.70;31.50
27747;DHT22;15138;51.012;4.692;2023-04-15T14:48:34;22.70;36.90
27747;DHT22;15138;51.012;4.692;2023-04-15T14:51:02;22.90;40.30
27747;DHT22;15138;51.012;4.692;2023-04-15T14:53:31;22.90;40.30
27747;DHT22;15138;51.012;4.692;2023-04-15T14:55:59;23.10;99.90
27747;DHT22;15138;51.012;4.692;2023-04-15T14:58:27;22.60;99.90
27747;DHT22;15138;51.012;4.692;2023-04-15T15:00:56;22.70;39.20
27747;DHT22;15138;51.012;4.692;2023-04-15T15:03:25;22.50;99.90
27747;DHT22;15138;51.012;4.692;2023-04-15T15:05:54;22.10;1.00
27747;DHT22;15138;51.012;4.692;2023-04-15T15:08:23;21.90;1.00
27747;DHT22;15138;51.012;4.692;2023-04-15T15:10:51;22.10;1.00
27747;DHT22;15138;51.012;4.692;2023-04-15T15:13:26;22.30;99.90
27747;DHT22;15138;51.012;4.692;2023-04-15T15:15:54;21.80;99.90
27747;DHT22;15138;51.012;4.692;2023-04-15T15:18:22;22.20;1.00
27747;DHT22;15138;51.012;4.692;2023-04-15T15:20:52;21.70;1.00
27747;DHT22;15138;51.012;4.692;2023-04-15T15:23:21;22.00;99.90
27747;DHT22;15138;51.012;4.692;2023-04-15T15:25:49;22.20;99.90
27747;DHT22;15138;51.012;4.692;2023-04-15T15:28:17;21.70;1.00
27747;DHT22;15138;51.012;4.692;2023-04-15T15:30:47;21.10;99.90
27747;DHT22;15138;51.012;4.692;2023-04-15T15:38:14;21.40;99.90
27747;DHT22;15138;51.012;4.692;2023-04-15T15:40:42;21.50;99.90
27747;DHT22;15138;51.012;4.692;2023-04-15T15:45:39;21.00;92.00
27747;DHT22;15138;51.012;4.692;2023-04-15T15:48:07;21.10;1.00
27747;DHT22;15138;51.012;4.692;2023-04-15T15:50:35;21.90;99.90
27747;DHT22;15138;51.012;4.692;2023-04-15T15:53:04;21.00;1.00
27747;DHT22;15138;51.012;4.692;2023-04-15T15:55:33;21.00;99.90
27747;DHT22;15138;51.012;4.692;2023-04-15T16:00:30;21.20;99.90
27747;DHT22;15138;51.012;4.692;2023-04-15T16:05:37;20.70;1.00
27747;DHT22;15138;51.012;4.692;2023-04-15T16:08:05;20.70;67.20
27747;DHT22;15138;51.012;4.692;2023-04-15T16:10:35;20.40;15.50
27747;DHT22;15138;51.012;4.692;2023-04-15T16:13:04;20.40;50.80
27747;DHT22;15138;51.012;4.692;2023-04-15T16:28:05;19.70;99.90
27747;DHT22;15138;51.012;4.692;2023-04-15T16:48:10;19.20;47.10
27747;DHT22;15138;51.012;4.692;2023-04-15T16:50:38;19.10;50.20
27747;DHT22;15138;51.012;4.692;2023-04-15T16:53:07;19.00;55.30
27747;DHT22;15138;51.012;4.692;2023-04-15T16:55:35;18.70;47.50
27747;DHT22;15138;51.012;4.692;2023-04-15T16:58:04;18.70;58.50
27747;DHT22;15138;51.012;4.692;2023-04-15T17:00:34;18.60;50.70
27747;DHT22;15138;51.012;4.692;2023-04-15T17:03:04;18.40;60.90
27747;DHT22;15138;51.012;4.692;2023-04-15T17:05:32;18.50;61.20
27747;DHT22;15138;51.012;4.692;2023-04-15T17:08:03;18.70;52.90
27747;DHT22;15138;51.012;4.692;2023-04-15T17:13:00;18.30;99.90
27747;DHT22;15138;51.012;4.692;2023-04-15T17:20:26;18.20;99.90
27747;DHT22;15138;51.012;4.692;2023-04-15T17:22:54;18.10;50.00
27747;DHT22;15138;51.012;4.692;2023-04-15T17:25:23;17.90;1.00
27747;DHT22;15138;51.012;4.692;2023-04-15T17:27:51;17.80;99.90
27747;DHT22;15138;51.012;4.692;2023-04-15T17:30:20;17.70;99.90
27747;DHT22;15138;51.012;4.692;2023-04-15T17:35:18;17.30;1.00
27747;DHT22;15138;51.012;4.692;2023-04-15T17:37:48;17.20;1.00
27747;DHT22;15138;51.012;4.692;2023-04-15T17:40:17;17.30;1.00
27747;DHT22;15138;51.012;4.692;2023-04-15T17:42:45;17.20;99.90
27747;DHT22;15138;51.012;4.692;2023-04-15T17:45:13;17.20;9.10
27747;DHT22;15138;51.012;4.692;2023-04-15T17:47:41;17.10;1.00
27747;DHT22;15138;51.012;4.692;2023-04-15T17:50:11;16.90;5.60
27747;DHT22;15138;51.012;4.692;2023-04-15T18:07:34;15.90;99.90
27747;DHT22;15138;51.012;4.692;2023-04-15T18:10:02;15.80;99.90
27747;DHT22;15138;51.012;4.692;2023-04-15T18:12:31;15.70;99.90
27747;DHT22;15138;51.012;4.692;2023-04-15T18:14:59;15.60;99.90
27747;DHT22;15138;51.012;4.692;2023-04-15T18:17:27;15.60;99.90
27747;DHT22;15138;51.012;4.692;2023-04-15T18:20:00;15.30;1.00
27747;DHT22;15138;51.012;4.692;2023-04-15T18:32:27;15.00;64.50
27747;DHT22;15138;51.012;4.692;2023-04-15T18:34:58;14.80;84.60
27747;DHT22;15138;51.012;4.692;2023-04-15T18:37:26;14.70;84.80
27747;DHT22;15138;51.012;4.692;2023-04-15T18:39:55;14.60;76.80
27747;DHT22;15138;51.012;4.692;2023-04-15T18:42:25;14.50;79.50
27747;DHT22;15138;51.012;4.692;2023-04-15T18:44:54;14.60;84.50
27747;DHT22;15138;51.012;4.692;2023-04-15T18:47:22;14.40;85.50
27747;DHT22;15138;51.012;4.692;2023-04-15T18:52:21;14.20;64.20
27747;DHT22;15138;51.012;4.692;2023-04-15T18:54:49;14.10;86.20
